createdAt,value
2022-11-08T00:06:53.555Z,6.06
2022-11-08T00:16:56.718Z,6.00
2022-11-08T00:26:59.544Z,6.03
2022-11-08T00:37:02.554Z,6.07
2022-11-08T00:47:05.848Z,6.12
2022-11-08T00:57:08.477Z,6.13
2022-11-08T01:07:11.066Z,6.07
2022-11-08T01:17:13.774Z,6.01
2022-11-08T01:27:16.843Z,5.98
2022-11-08T01:37:21.145Z,5.91
2022-11-08T01:47:25.297Z,5.87
2022-11-08T01:57:33.876Z,5.82
2022-11-08T02:07:38.126Z,5.78
2022-11-08T02:17:41.020Z,5.72
2022-11-08T02:27:43.845Z,5.65
2022-11-08T02:37:47.361Z,5.58
2022-11-08T02:47:49.923Z,5.49
2022-11-08T02:57:52.505Z,5.41
2022-11-08T03:07:55.698Z,5.32
2022-11-08T03:17:59.432Z,5.25
2022-11-08T03:28:01.565Z,5.21
2022-11-08T03:38:04.236Z,5.16
2022-11-08T03:48:06.320Z,5.10
2022-11-08T03:58:09.270Z,5.07
2022-11-08T04:08:12.599Z,5.04
2022-11-08T04:18:33.554Z,5.00
2022-11-08T04:28:37.311Z,4.97
2022-11-08T04:38:39.861Z,4.94
2022-11-08T04:48:43.185Z,4.87
2022-11-08T04:58:46.945Z,4.77
2022-11-08T05:08:50.080Z,4.67
2022-11-08T05:18:53.239Z,4.65
2022-11-08T05:28:55.835Z,4.58
2022-11-08T05:38:58.441Z,4.55
2022-11-08T05:49:00.668Z,4.54
2022-11-08T05:59:03.514Z,4.61
2022-11-08T06:09:06.169Z,4.72
2022-11-08T06:19:08.768Z,4.89
2022-11-08T06:29:11.728Z,5.17
2022-11-08T06:39:14.376Z,5.39
2022-11-08T06:49:17.104Z,5.64
2022-11-08T06:59:19.741Z,6.13
2022-11-08T07:09:22.639Z,7.35
2022-11-08T07:19:25.252Z,8.72
2022-11-08T07:29:27.917Z,9.77
2022-11-08T07:39:30.500Z,10.27
2022-11-08T07:49:32.852Z,10.93
2022-11-08T07:59:35.566Z,11.62
2022-11-08T08:09:38.241Z,12.12
2022-11-08T08:19:40.847Z,12.73
2022-11-08T08:29:43.649Z,12.41
2022-11-08T08:39:46.484Z,12.53
2022-11-08T08:49:49.329Z,12.74
2022-11-08T09:10:15.600Z,12.92
2022-11-08T09:20:18.301Z,13.16
2022-11-08T09:30:20.857Z,13.28
2022-11-08T09:40:23.181Z,13.45
2022-11-08T09:50:28.983Z,13.67
2022-11-08T10:00:32.871Z,13.85
2022-11-08T10:10:36.332Z,14.11
2022-11-08T10:20:39.053Z,14.29
2022-11-08T10:30:43.664Z,14.44
2022-11-08T10:40:50.869Z,14.56
2022-11-08T10:50:55.432Z,14.67
2022-11-08T11:00:59.040Z,14.74
2022-11-08T11:11:15.031Z,14.74
2022-11-08T11:21:18.756Z,14.78
2022-11-08T11:31:21.364Z,14.71
2022-11-08T11:41:24.271Z,14.59
2022-11-08T11:51:28.926Z,14.46
2022-11-08T12:01:32.607Z,14.39
2022-11-08T12:11:36.411Z,14.53
2022-11-08T12:21:45.615Z,14.62
2022-11-08T12:31:48.098Z,14.58
2022-11-08T12:41:51.587Z,14.62
2022-11-08T12:51:58.623Z,14.64
2022-11-08T13:02:00.683Z,14.52
2022-11-08T13:12:04.594Z,14.44
2022-11-08T13:22:10.086Z,14.46
2022-11-08T13:32:21.059Z,14.40
2022-11-08T13:42:29.869Z,14.37
2022-11-08T13:52:50.511Z,14.34
2022-11-08T14:02:53.175Z,14.19
2022-11-08T14:13:00.569Z,14.04
2022-11-08T14:23:03.830Z,13.83
2022-11-08T14:33:06.276Z,13.60
2022-11-08T14:43:10.173Z,13.35
2022-11-08T14:53:26.728Z,13.04
2022-11-08T15:03:30.935Z,12.63
2022-11-08T15:13:33.683Z,12.15
2022-11-08T15:23:47.499Z,11.76
2022-11-08T15:33:50.411Z,11.42
2022-11-08T15:44:05.445Z,11.12
2022-11-08T15:54:08.092Z,10.92
2022-11-08T16:04:10.881Z,10.74
2022-11-08T16:14:14.127Z,10.47
2022-11-08T16:24:17.267Z,10.13
2022-11-08T16:34:19.943Z,9.63
2022-11-08T16:44:22.999Z,9.09
2022-11-08T16:54:25.984Z,8.78
2022-11-08T17:04:28.883Z,8.55
2022-11-08T17:14:31.382Z,8.31
2022-11-08T17:24:34.646Z,8.21
2022-11-08T17:34:39.383Z,8.09
2022-11-08T17:44:41.934Z,8.12
2022-11-08T17:54:47.867Z,8.29
2022-11-08T18:04:52.926Z,8.34
2022-11-08T18:14:55.577Z,8.34
2022-11-08T18:24:58.181Z,8.22
2022-11-08T18:35:01.320Z,8.08
2022-11-08T18:45:04.695Z,7.92
2022-11-08T18:55:08.383Z,7.74
2022-11-08T19:05:11.125Z,7.69
2022-11-08T19:15:13.887Z,7.85
2022-11-08T19:25:16.588Z,7.95
2022-11-08T19:35:19.811Z,8.02
2022-11-08T19:45:22.433Z,8.04
2022-11-08T19:55:25.172Z,7.98
2022-11-08T20:05:27.692Z,7.87
2022-11-08T20:15:29.926Z,7.81
2022-11-08T20:25:33.270Z,7.87
2022-11-08T20:35:36.377Z,8.09
2022-11-08T20:45:38.737Z,8.32
2022-11-08T20:55:41.417Z,8.52
2022-11-08T21:05:49.134Z,8.70
2022-11-08T21:15:51.930Z,8.90
2022-11-08T21:25:54.550Z,9.15
2022-11-08T21:35:57.903Z,9.35
2022-11-08T21:46:00.473Z,9.41
2022-11-08T21:56:03.364Z,9.47
2022-11-08T22:06:05.328Z,9.48
2022-11-08T22:16:07.603Z,9.51
2022-11-08T22:26:10.273Z,9.54
2022-11-08T22:36:12.924Z,9.59
2022-11-08T22:46:15.780Z,9.56
2022-11-08T22:56:18.368Z,9.57
2022-11-08T23:06:20.949Z,9.57
2022-11-08T23:16:36.851Z,9.58
2022-11-08T23:26:57.809Z,9.57
2022-11-08T23:36:59.896Z,9.57
2022-11-08T23:47:02.538Z,9.54
2022-11-08T23:57:05.149Z,9.55
